Time;durP1;ratioP1;P1;durP2;ratioP2;P2;SDS_P1;SDS_P2;PMS_P1;PMS_P2;Temp;Humidity;BMP_temperature;BMP_pressure;BME280_temperature;BME280_humidity;BME280_pressure;Samples;Min_cycle;Max_cycle;Signal;HPM_P1;HPM_P2
2021/05/27 00:00:40;;;;;;;5.32;3.70;;;;;;;20.16;100.00;101023.97;4889406;29;20100;-76
2021/05/27 00:03:26;;;;;;;5.47;4.05;;;;;;;20.08;100.00;101018.16;4902412;29;20143;-76
2021/05/27 00:06:12;;;;;;;4.05;3.65;;;;;;;20.19;100.00;101018.50;4901760;29;20375;-77
2021/05/27 00:08:58;;;;;;;7.53;4.18;;;;;;;19.96;100.00;101007.28;4889511;29;20056;-76
2021/05/27 00:11:43;;;;;;;6.00;4.38;;;;;;;19.77;100.00;100999.38;4889077;29;20025;-75
2021/05/27 00:14:29;;;;;;;7.65;4.75;;;;;;;19.76;100.00;100992.34;4902009;29;20033;-77
2021/05/27 00:17:17;;;;;;;4.93;4.47;;;;;;;20.05;100.00;100991.72;4889159;29;20031;-76
2021/05/27 00:20:04;;;;;;;6.63;4.07;;;;;;;19.73;100.00;100995.16;4901468;29;20040;-76
2021/05/27 00:22:50;;;;;;;6.90;4.43;;;;;;;19.86;100.00;100996.28;4888992;29;20362;-76
2021/05/27 00:25:36;;;;;;;7.32;4.30;;;;;;;19.88;100.00;100997.03;4888690;29;20427;-76
2021/05/27 00:28:22;;;;;;;6.25;4.13;;;;;;;19.91;100.00;101002.22;4889294;29;20033;-76
2021/05/27 00:31:07;;;;;;;4.55;3.83;;;;;;;20.30;100.00;101005.50;4888695;29;20096;-76
2021/05/27 00:33:53;;;;;;;7.15;4.35;;;;;;;20.63;100.00;101002.84;4901257;29;20057;-75
2021/05/27 00:36:39;;;;;;;6.50;4.25;;;;;;;20.42;100.00;101004.88;4888859;29;20028;-76
2021/05/27 00:39:25;;;;;;;5.80;4.32;;;;;;;19.79;100.00;101001.97;4888742;29;20431;-76
2021/05/27 00:42:11;;;;;;;4.90;4.00;;;;;;;20.11;100.00;101007.41;4888829;29;20025;-77
2021/05/27 00:45:17;;;;;;;5.30;4.57;;;;;;;20.00;100.00;101001.75;4888672;29;20035;-77
2021/05/27 00:48:04;;;;;;;8.32;4.82;;;;;;;20.31;100.00;101001.03;4901341;29;20037;-77
2021/05/27 00:50:49;;;;;;;5.90;4.47;;;;;;;19.92;100.00;100993.28;4888336;29;20060;-77
2021/05/27 00:53:35;;;;;;;6.22;3.90;;;;;;;20.04;100.00;100997.09;4900967;29;20060;-75
2021/05/27 00:56:21;;;;;;;4.45;3.60;;;;;;;20.00;100.00;100979.59;4888457;29;20036;-75
2021/05/27 00:59:08;;;;;;;4.07;3.67;;;;;;;19.01;100.00;100990.78;4901398;29;20024;-76
2021/05/27 01:01:54;;;;;;;4.28;3.63;;;;;;;18.92;100.00;100992.06;4888002;29;20051;-75
2021/05/27 01:04:40;;;;;;;5.65;3.60;;;;;;;19.42;100.00;100997.66;4888246;29;20120;-76
2021/05/27 01:07:26;;;;;;;4.32;3.92;;;;;;;19.75;100.00;100995.09;4900668;29;20028;-75
2021/05/27 01:10:13;;;;;;;5.63;4.38;;;;;;;19.96;100.00;100991.31;4888117;29;20051;-75
2021/05/27 01:12:59;;;;;;;5.13;3.92;;;;;;;19.62;100.00;100999.31;4900615;29;20373;-75
2021/05/27 01:15:45;;;;;;;4.95;4.00;;;;;;;19.86;100.00;101000.72;4888449;29;20116;-75
2021/05/27 01:18:31;;;;;;;6.38;4.10;;;;;;;19.86;100.00;101001.59;4901034;29;20056;-75
2021/05/27 01:21:17;;;;;;;5.65;4.20;;;;;;;19.71;100.00;101007.69;4888181;29;20029;-76
2021/05/27 01:24:03;;;;;;;5.18;4.43;;;;;;;19.71;100.00;101005.03;4887811;29;20044;-76
2021/05/27 01:26:49;;;;;;;5.80;4.55;;;;;;;19.61;100.00;101011.72;4901117;29;20047;-76
2021/05/27 01:29:35;;;;;;;5.25;4.55;;;;;;;19.52;100.00;101008.69;4900528;29;20033;-76
2021/05/27 01:32:21;;;;;;;8.50;4.97;;;;;;;19.65;100.00;101007.13;4900031;29;20064;-76
2021/05/27 01:35:14;;;;;;;5.88;4.65;;;;;;;19.71;100.00;101020.09;4900878;29;20035;-76
2021/05/27 01:37:59;;;;;;;8.23;6.20;;;;;;;19.76;100.00;101004.81;4887547;29;20020;-75
2021/05/27 01:40:46;;;;;;;10.18;5.63;;;;;;;19.73;100.00;101005.78;4887791;29;20466;-76
2021/05/27 01:43:32;;;;;;;8.95;6.35;;;;;;;19.83;100.00;101000.88;4899449;29;20472;-76
2021/05/27 01:46:18;;;;;;;9.52;6.70;;;;;;;20.00;100.00;101003.53;4887555;29;20033;-77
2021/05/27 01:49:04;;;;;;;9.77;6.75;;;;;;;19.94;100.00;101001.19;4887411;29;20021;-76
2021/05/27 01:51:50;;;;;;;9.88;6.25;;;;;;;19.58;100.00;100997.75;4887933;29;20040;-76
2021/05/27 01:54:39;;;;;;;9.75;7.10;;;;;;;19.44;100.00;101001.06;4900001;29;20366;-76
2021/05/27 01:57:25;;;;;;;9.07;6.22;;;;;;;19.46;100.00;101003.66;4900091;29;20168;-76
2021/05/27 02:00:11;;;;;;;7.05;6.35;;;;;;;19.48;100.00;101002.66;4899895;29;20040;-76
2021/05/27 02:02:58;;;;;;;8.20;6.95;;;;;;;19.16;100.00;101008.63;4899284;29;20028;-76
2021/05/27 02:05:43;;;;;;;8.35;6.53;;;;;;;19.20;100.00;101007.53;4887405;29;20035;-76
2021/05/27 02:08:29;;;;;;;12.77;6.97;;;;;;;19.39;100.00;100996.91;4900012;29;20037;-76
2021/05/27 02:11:15;;;;;;;11.25;6.85;;;;;;;19.52;100.00;100996.25;4899544;29;20120;-76
2021/05/27 02:14:01;;;;;;;8.15;6.55;;;;;;;19.28;100.00;101005.41;4887084;29;20431;-76
2021/05/27 02:16:47;;;;;;;6.60;5.32;;;;;;;19.00;100.00;101007.63;4899672;29;20028;-76
2021/05/27 02:19:33;;;;;;;6.03;4.50;;;;;;;18.95;100.00;100999.03;4901362;29;20155;-76
2021/05/27 02:22:18;;;;;;;5.18;4.68;;;;;;;18.91;100.00;101000.97;4920798;29;20076;-75
2021/05/27 02:25:06;;;;;;;5.32;3.95;;;;;;;18.78;100.00;101002.47;4921814;29;20080;-76
2021/05/27 02:27:51;;;;;;;4.65;4.25;;;;;;;19.14;100.00;100994.56;4887215;29;20120;-76
2021/05/27 02:30:37;;;;;;;5.82;4.90;;;;;;;18.79;100.00;100995.38;4900033;29;20087;-77
2021/05/27 02:33:23;;;;;;;8.35;4.85;;;;;;;19.35;100.00;101004.19;4906398;29;20056;-76
2021/05/27 02:36:10;;;;;;;5.60;4.88;;;;;;;18.69;100.00;101010.00;4911808;29;20481;-76
2021/05/27 02:38:56;;;;;;;6.90;5.10;;;;;;;18.53;100.00;101015.13;4897941;29;20435;-75
2021/05/27 02:41:42;;;;;;;7.53;5.55;;;;;;;18.50;100.00;101014.44;4900075;29;20032;-77
2021/05/27 02:44:28;;;;;;;10.63;6.03;;;;;;;18.48;100.00;101008.31;4886513;29;20088;-76
2021/05/27 02:47:14;;;;;;;7.22;5.70;;;;;;;18.26;100.00;101007.53;4899107;29;20096;-76
2021/05/27 02:50:00;;;;;;;7.07;6.38;;;;;;;18.28;100.00;101000.34;4899118;29;20039;-76
2021/05/27 02:52:45;;;;;;;7.70;6.57;;;;;;;17.82;100.00;101005.94;4899190;29;20068;-77
2021/05/27 02:55:31;;;;;;;8.10;6.40;;;;;;;17.66;100.00;101003.09;4899645;29;20538;-77
2021/05/27 02:58:18;;;;;;;8.63;6.88;;;;;;;17.64;100.00;101004.91;4899017;29;20396;-76
2021/05/27 03:01:03;;;;;;;9.05;7.22;;;;;;;17.54;100.00;101002.72;4898890;29;20028;-76
2021/05/27 03:03:50;;;;;;;7.70;6.25;;;;;;;17.51;100.00;101011.66;4886356;29;20470;-76
2021/05/27 03:06:35;;;;;;;10.63;6.38;;;;;;;18.12;100.00;101023.16;4898504;29;20092;-76
2021/05/27 03:09:21;;;;;;;7.72;6.28;;;;;;;18.13;100.00;101036.38;4899214;29;20029;-76
2021/05/27 03:12:07;;;;;;;11.27;6.70;;;;;;;18.33;100.00;101028.41;4886277;29;20036;-76
2021/05/27 03:14:53;;;;;;;8.77;7.80;;;;;;;17.42;100.00;101021.75;4901838;29;20052;-76
2021/05/27 03:17:39;;;;;;;10.82;8.73;;;;;;;17.50;100.00;101017.88;4902992;29;20454;-76
2021/05/27 03:20:24;;;;;;;12.07;7.60;;;;;;;18.02;100.00;101024.50;4889961;29;20028;-76
2021/05/27 03:23:11;;;;;;;14.23;9.00;;;;;;;18.29;100.00;101028.63;4902776;29;20517;-76
2021/05/27 03:25:57;;;;;;;9.50;8.50;;;;;;;18.67;100.00;101027.78;4889773;29;20036;-76
2021/05/27 03:28:43;;;;;;;12.35;9.10;;;;;;;18.56;100.00;101028.28;4902658;29;20032;-76
2021/05/27 03:31:29;;;;;;;10.85;9.18;;;;;;;18.42;100.00;101027.19;4902455;29;20043;-76
2021/05/27 03:34:14;;;;;;;11.70;10.18;;;;;;;18.01;100.00;101030.75;4902173;29;20084;-76
2021/05/27 03:37:00;;;;;;;12.32;9.68;;;;;;;18.27;100.00;101025.16;4902447;29;20599;-75
2021/05/27 03:42:52;;;;;;;11.20;9.85;;;;;;;17.64;100.00;101030.56;4902146;29;20199;-75
2021/05/27 03:45:38;;;;;;;11.68;9.65;;;;;;;17.82;100.00;101043.03;4890001;29;20033;-75
2021/05/27 03:48:24;;;;;;;12.85;10.77;;;;;;;17.58;100.00;101052.00;4902738;29;20024;-75
2021/05/27 03:51:10;;;;;;;15.32;11.45;;;;;;;17.71;100.00;101051.44;4902242;29;20028;-76
2021/05/27 03:53:55;;;;;;;17.58;10.60;;;;;;;18.13;100.00;101054.94;4901873;29;20138;-75
2021/05/27 03:56:41;;;;;;;12.20;10.77;;;;;;;18.05;100.00;101048.25;4901487;29;20049;-75
2021/05/27 04:02:31;;;;;;;16.52;11.65;;;;;;;17.93;100.00;101054.06;4901950;29;20037;-75
2021/05/27 04:08:21;;;;;;;13.90;11.15;;;;;;;18.39;100.00;101078.59;4901936;29;20036;-75
2021/05/27 04:11:07;;;;;;;13.32;11.30;;;;;;;18.10;100.00;101075.44;4889780;29;20072;-74
2021/05/27 04:13:53;;;;;;;14.73;10.75;;;;;;;18.32;100.00;101077.09;4900967;29;20374;-75
2021/05/27 04:16:39;;;;;;;18.30;11.35;;;;;;;18.53;100.00;101072.69;4902099;29;20031;-74
2021/05/27 04:19:24;;;;;;;16.98;11.52;;;;;;;18.58;100.00;101081.28;4900923;29;20111;-75
2021/05/27 04:22:10;;;;;;;15.45;11.10;;;;;;;18.73;100.00;101086.75;4888846;29;20060;-75
2021/05/27 04:24:56;;;;;;;12.75;11.10;;;;;;;18.61;100.00;101087.31;4900295;29;20053;-75
2021/05/27 04:27:42;;;;;;;13.32;10.52;;;;;;;18.94;100.00;101095.56;4901685;29;20040;-75
2021/05/27 04:30:30;;;;;;;18.73;11.50;;;;;;;18.93;100.00;101089.38;4901514;29;20340;-75
2021/05/27 04:33:15;;;;;;;14.70;11.70;;;;;;;19.12;100.00;101095.56;4901618;29;20083;-74
2021/05/27 04:36:02;;;;;;;17.90;11.80;;;;;;;19.01;100.00;101089.88;4900773;29;20024;-75
2021/05/27 04:38:49;;;;;;;15.23;12.73;;;;;;;19.06;100.00;101084.38;4901616;29;20021;-75
2021/05/27 04:41:35;;;;;;;16.50;12.63;;;;;;;18.47;100.00;101073.81;4889280;29;20028;-75
2021/05/27 04:44:21;;;;;;;17.38;13.73;;;;;;;17.91;100.00;101059.44;4901249;29;20032;-75
2021/05/27 04:47:07;;;;;;;20.60;14.75;;;;;;;18.00;100.00;101053.75;4888720;29;20111;-74
2021/05/27 04:49:52;;;;;;;21.65;15.25;;;;;;;18.27;100.00;101044.59;4900329;29;20103;-75
2021/05/27 04:52:39;;;;;;;23.98;16.80;;;;;;;18.30;100.00;101046.25;4900625;29;20036;-75
2021/05/27 04:55:25;;;;;;;23.30;16.55;;;;;;;18.43;100.00;101063.38;4888598;29;20092;-75
2021/05/27 04:58:11;;;;;;;21.98;14.52;;;;;;;18.30;100.00;101081.63;4887912;29;20033;-74
2021/05/27 05:00:58;;;;;;;18.67;13.55;;;;;;;18.24;100.00;101087.16;4887550;29;20033;-74
2021/05/27 05:03:43;;;;;;;22.98;14.00;;;;;;;18.56;100.00;101070.75;4901930;29;20044;-75
2021/05/27 05:06:29;;;;;;;15.18;12.45;;;;;;;18.83;100.00;101076.59;4900688;29;20028;-75
2021/05/27 05:09:15;;;;;;;15.82;12.63;;;;;;;18.96;100.00;101064.47;4901068;29;20358;-75
2021/05/27 05:12:01;;;;;;;15.93;12.38;;;;;;;18.84;100.00;101060.59;4901036;29;20108;-74
2021/05/27 05:14:46;;;;;;;16.42;12.63;;;;;;;18.76;100.00;101053.91;4900957;29;20060;-74
2021/05/27 05:17:32;;;;;;;17.13;12.93;;;;;;;18.66;100.00;101061.41;4888093;29;20103;-74
2021/05/27 05:20:24;;;;;;;20.27;13.68;;;;;;;18.48;100.00;101059.59;4900035;29;20039;-75
2021/05/27 05:23:10;;;;;;;15.75;11.77;;;;;;;18.87;100.00;101056.94;4900557;29;20177;-75
2021/05/27 05:25:56;;;;;;;14.48;9.95;;;;;;;19.09;100.00;101047.91;4900239;29;20029;-75
2021/05/27 05:28:42;;;;;;;15.77;12.02;;;;;;;19.46;100.00;101048.84;4900961;29;20338;-76
2021/05/27 05:31:28;;;;;;;15.60;10.23;;;;;;;19.27;100.00;101053.31;4900173;29;20440;-74
2021/05/27 05:34:13;;;;;;;13.77;9.70;;;;;;;19.41;100.00;101051.72;4900129;29;20390;-75
2021/05/27 05:36:59;;;;;;;12.07;9.80;;;;;;;19.53;100.00;101044.94;4899868;29;20025;-75
2021/05/27 05:39:45;;;;;;;10.43;8.82;;;;;;;19.92;100.00;101048.28;4900432;29;20112;-75
2021/05/27 05:42:31;;;;;;;15.80;9.60;;;;;;;19.75;100.00;101049.13;4900281;29;20111;-75
2021/05/27 05:45:18;;;;;;;13.20;9.38;;;;;;;19.56;100.00;101053.63;4900926;29;20367;-75
2021/05/27 05:48:07;;;;;;;12.45;9.38;;;;;;;19.65;100.00;101050.50;4899647;29;20370;-75
2021/05/27 05:50:57;;;;;;;10.10;8.95;;;;;;;19.51;100.00;101060.97;4900140;29;20128;-75
2021/05/27 05:53:43;;;;;;;14.82;8.77;;;;;;;19.20;100.00;101056.25;4886724;29;20060;-75
2021/05/27 05:56:28;;;;;;;12.75;9.50;;;;;;;19.55;100.00;101059.00;4887181;29;20427;-74
2021/05/27 05:59:14;;;;;;;12.77;8.98;;;;;;;20.20;100.00;101062.78;4899825;29;20119;-75
2021/05/27 06:02:03;;;;;;;12.65;8.10;;;;;;;20.00;100.00;101060.25;4886994;29;20029;-75
2021/05/27 06:04:49;;;;;;;10.07;7.13;;;;;;;20.08;100.00;101071.38;4887615;29;20457;-75
2021/05/27 06:07:35;;;;;;;10.27;7.28;;;;;;;20.33;100.00;101079.84;4899505;29;20366;-75
2021/05/27 06:10:21;;;;;;;14.90;9.65;;;;;;;20.79;100.00;101081.84;4886701;29;20040;-75
2021/05/27 06:13:07;;;;;;;13.85;7.95;;;;;;;20.58;100.00;101093.59;4899286;29;20055;-75
2021/05/27 06:15:53;;;;;;;11.07;8.10;;;;;;;20.94;100.00;101101.47;4886989;29;20160;-75
2021/05/27 06:18:38;;;;;;;11.80;7.35;;;;;;;20.77;100.00;101110.34;4886553;29;20025;-75
2021/05/27 06:21:24;;;;;;;12.27;7.07;;;;;;;21.04;100.00;101106.22;4887097;29;20033;-75
2021/05/27 06:24:10;;;;;;;10.95;7.18;;;;;;;20.49;100.00;101106.56;4885907;29;20024;-74
2021/05/27 06:26:56;;;;;;;7.45;6.25;;;;;;;20.97;100.00;101106.66;4886633;29;20061;-75
2021/05/27 06:29:42;;;;;;;9.88;6.57;;;;;;;20.94;100.00;101115.66;4899203;29;20060;-74
2021/05/27 06:32:29;;;;;;;13.02;7.80;;;;;;;21.39;100.00;101113.16;4886197;29;20347;-76
2021/05/27 06:35:15;;;;;;;12.27;7.80;;;;;;;21.52;100.00;101113.31;4886666;29;20028;-75
2021/05/27 06:38:01;;;;;;;12.65;8.43;;;;;;;21.43;100.00;101114.72;4898917;29;20052;-75
2021/05/27 06:40:47;;;;;;;11.43;6.68;;;;;;;21.36;100.00;101113.31;4899700;29;20524;-75
2021/05/27 06:43:33;;;;;;;10.77;8.63;;;;;;;21.19;100.00;101124.06;4898813;29;20032;-75
2021/05/27 06:46:20;;;;;;;10.10;7.95;;;;;;;20.88;100.00;101123.06;4899353;29;20033;-75
2021/05/27 06:49:06;;;;;;;10.60;7.00;;;;;;;21.06;100.00;101127.47;4885838;29;20473;-75
2021/05/27 06:51:56;;;;;;;9.90;6.63;;;;;;;21.83;100.00;101130.19;4887171;29;20118;-76
2021/05/27 06:54:42;;;;;;;10.27;6.82;;;;;;;21.55;100.00;101137.16;4901040;29;20032;-75
2021/05/27 06:57:28;;;;;;;11.88;8.40;;;;;;;21.77;100.00;101140.34;4900537;29;20020;-76
2021/05/27 07:00:19;;;;;;;11.10;7.43;;;;;;;21.96;100.00;101138.38;4899536;29;20029;-78
2021/05/27 07:03:06;;;;;;;10.82;7.28;;;;;;;22.21;100.00;101130.66;4886551;29;20037;-76
2021/05/27 07:05:52;;;;;;;11.98;6.60;;;;;;;22.53;100.00;101133.16;4887605;29;20339;-77
2021/05/27 07:08:39;;;;;;;11.00;6.45;;;;;;;22.30;100.00;101135.47;4886312;29;20020;-78
2021/05/27 07:11:25;;;;;;;13.90;6.47;;;;;;;23.65;100.00;101136.81;4899591;29;20056;-75
2021/05/27 07:14:10;;;;;;;9.38;6.80;;;;;;;22.61;100.00;101135.38;4899370;29;20032;-78
2021/05/27 07:16:56;;;;;;;9.70;7.15;;;;;;;23.11;100.00;101127.78;4887071;29;20040;-78
2021/05/27 07:19:42;;;;;;;9.75;7.65;;;;;;;23.43;100.00;101122.16;4886128;29;20036;-78
2021/05/27 07:22:28;;;;;;;11.65;8.50;;;;;;;22.57;100.00;101121.34;4886560;29;20047;-78
2021/05/27 07:25:14;;;;;;;13.85;8.95;;;;;;;22.59;100.00;101116.75;4899246;29;20044;-77
2021/05/27 07:28:00;;;;;;;10.35;8.40;;;;;;;22.98;100.00;101118.81;4886316;29;20343;-77
2021/05/27 07:30:45;;;;;;;10.18;7.15;;;;;;;23.39;100.00;101120.63;4885834;29;20036;-78
2021/05/27 08:36:00;;;;;;;14.80;4.05;;;;;;;27.30;85.16;101067.81;5829043;23;20052;-76
2021/05/27 08:38:46;;;;;;;7.72;4.20;;;;;;;27.88;82.19;101063.91;4924123;29;20040;-77
2021/05/27 08:41:32;;;;;;;8.95;3.55;;;;;;;27.74;79.27;101070.41;4920985;29;20087;-78
2021/05/27 08:44:18;;;;;;;5.90;3.35;;;;;;;27.25;79.92;101056.56;4919977;29;20028;-77
2021/05/27 08:47:04;;;;;;;6.65;3.53;;;;;;;27.77;80.51;101050.44;4921283;29;20203;-77
2021/05/27 08:49:51;;;;;;;8.68;3.60;;;;;;;27.43;81.02;101050.53;4920257;29;20039;-77
2021/05/27 08:52:37;;;;;;;5.05;3.45;;;;;;;27.50;79.12;101040.13;4919237;29;20070;-76
2021/05/27 08:55:23;;;;;;;7.10;3.58;;;;;;;27.76;79.51;101049.56;4920149;29;20504;-76
2021/05/27 08:58:09;;;;;;;16.05;4.10;;;;;;;27.42;80.16;101043.44;4919235;29;20191;-77
2021/05/27 09:00:55;;;;;;;5.00;3.22;;;;;;;27.33;79.96;101032.59;4920584;29;20401;-77
2021/05/27 09:03:43;;;;;;;4.60;3.00;;;;;;;26.91;78.16;101044.06;4920540;29;20453;-77
2021/05/27 09:06:29;;;;;;;3.53;3.10;;;;;;;26.63;78.99;101063.34;4920360;29;20396;-77
2021/05/27 09:09:14;;;;;;;5.80;3.38;;;;;;;26.71;77.27;101071.69;4919167;29;20054;-77
2021/05/27 09:12:00;;;;;;;4.15;3.33;;;;;;;27.01;79.98;101069.28;4905709;29;20024;-77
2021/05/27 09:14:46;;;;;;;3.85;3.08;;;;;;;25.97;81.60;101063.16;4905682;29;20028;-76
2021/05/27 09:17:49;;;;;;;3.78;2.70;;;;;;;25.77;81.91;101064.63;4905834;29;20039;-76
2021/05/27 09:20:35;;;;;;;4.55;3.08;;;;;;;25.92;84.30;101070.69;4918985;29;20024;-78
2021/05/27 09:23:21;;;;;;;6.18;3.30;;;;;;;26.77;82.01;101061.28;4919710;29;20119;-78
2021/05/27 09:26:12;;;;;;;3.45;3.10;;;;;;;26.58;81.79;101073.63;4905241;29;20051;-76
2021/05/27 09:29:46;;;;;;;5.93;2.90;;;;;;;26.37;82.47;101073.41;4919162;29;20044;-78
2021/05/27 09:32:37;;;;;;;3.47;2.88;;;;;;;26.75;81.60;101071.34;4881208;29;20544;-76
2021/05/27 09:35:26;;;;;;;3.80;2.80;;;;;;;26.29;85.20;101066.94;4919260;29;20123;-78
2021/05/27 09:38:13;;;;;;;3.70;3.00;;;;;;;26.51;86.61;101058.91;4918232;29;20454;-78
2021/05/27 09:40:59;;;;;;;5.18;3.50;;;;;;;26.26;86.80;101051.91;4919210;29;20453;-76
2021/05/27 09:43:49;;;;;;;5.05;3.33;;;;;;;26.14;88.70;101044.78;4907025;29;20051;-78
2021/05/27 09:46:49;;;;;;;7.65;2.90;;;;;;;26.76;86.32;101046.16;4920377;29;20031;-75
2021/05/27 09:49:35;;;;;;;5.70;3.03;;;;;;;26.95;86.09;101040.16;4905486;29;20032;-75
2021/05/27 09:52:21;;;;;;;5.80;3.03;;;;;;;27.17;86.35;101040.16;4920599;29;20064;-77
2021/05/27 09:55:19;;;;;;;4.80;2.80;;;;;;;27.24;86.46;101038.69;4919791;29;20063;-77
2021/05/27 09:58:10;;;;;;;7.25;3.28;;;;;;;27.88;82.79;101043.19;4918776;29;20096;-76
2021/05/27 10:01:08;;;;;;;4.80;2.70;;;;;;;27.45;85.31;101027.03;4918222;29;20035;-75
2021/05/27 10:04:16;;;;;;;4.55;2.92;;;;;;;27.14;85.60;101032.31;4977004;23;20163;-75
2021/05/27 10:07:01;;;;;;;4.70;2.22;;;;;;;27.02;74.29;101030.63;4900036;29;20132;-76
2021/05/27 10:09:47;;;;;;;9.32;2.67;;;;;;;26.89;69.14;101027.22;4898719;29;20362;-76
2021/05/27 10:12:42;;;;;;;8.07;2.72;;;;;;;27.21;69.60;101014.75;4898679;29;20100;-76
2021/05/27 10:15:27;;;;;;;5.68;2.40;;;;;;;27.01;71.25;101019.00;4899927;29;20028;-76
2021/05/27 10:18:21;;;;;;;3.50;2.65;;;;;;;27.29;75.88;101023.88;4899937;29;20056;-77
2021/05/27 10:21:08;;;;;;;5.03;3.00;;;;;;;27.20;79.33;101015.69;4900701;29;20032;-77
2021/05/27 10:23:54;;;;;;;5.07;2.88;;;;;;;26.87;83.50;101003.13;4899121;29;20049;-76
2021/05/27 10:26:41;;;;;;;3.88;3.25;;;;;;;26.99;84.96;101001.28;4900185;29;20029;-76
2021/05/27 10:29:27;;;;;;;9.70;3.65;;;;;;;26.45;88.04;101006.50;4900561;29;20451;-77
2021/05/27 10:32:16;;;;;;;5.20;3.03;;;;;;;26.81;85.61;101002.78;4899853;29;20114;-77
2021/05/27 10:35:05;;;;;;;6.15;3.40;;;;;;;26.51;81.16;101008.72;4899375;29;20025;-75
2021/05/27 10:37:52;;;;;;;6.07;3.15;;;;;;;26.61;83.97;100996.28;4899252;29;20123;-75
2021/05/27 10:40:39;;;;;;;3.88;2.85;;;;;;;26.93;86.44;100997.25;4899607;29;20036;-75
2021/05/27 10:43:25;;;;;;;5.53;2.60;;;;;;;26.97;80.89;100996.00;4898682;29;20028;-75
2021/05/27 10:46:13;;;;;;;4.18;2.80;;;;;;;26.65;74.75;100997.75;4900362;29;20134;-76
2021/05/27 10:48:59;;;;;;;3.17;2.67;;;;;;;26.23;74.57;101000.22;4898858;29;20035;-75
2021/05/27 10:51:49;;;;;;;4.38;2.55;;;;;;;26.35;74.38;100991.22;4899255;29;20042;-76
2021/05/27 10:54:35;;;;;;;4.22;3.10;;;;;;;26.72;74.47;100998.97;4899448;29;20125;-76
2021/05/27 10:57:39;;;;;;;4.97;2.97;;;;;;;26.92;72.93;101008.13;4899921;29;20454;-75
2021/05/27 11:00:46;;;;;;;4.43;3.05;;;;;;;26.80;76.23;101027.97;4898709;29;20040;-75
2021/05/27 11:03:53;;;;;;;4.07;3.15;;;;;;;26.67;78.55;101016.44;4909970;29;20139;-75
2021/05/27 11:06:40;;;;;;;5.88;3.90;;;;;;;26.19;82.70;101009.50;4918183;29;20028;-75
2021/05/27 11:09:35;;;;;;;5.88;4.03;;;;;;;26.54;84.09;101016.53;4918364;29;20461;-76
2021/05/27 11:12:28;;;;;;;10.80;3.83;;;;;;;26.01;87.28;101009.09;4918503;29;20047;-78
2021/05/27 11:15:17;;;;;;;6.43;3.80;;;;;;;26.34;87.29;100998.44;4917343;29;20070;-76
2021/05/27 11:18:07;;;;;;;4.75;3.20;;;;;;;27.00;83.08;101001.16;4906113;29;20106;-79
2021/05/27 11:20:57;;;;;;;10.82;3.80;;;;;;;26.35;82.24;100996.59;4918097;29;20020;-78
2021/05/27 11:24:55;;;;;;;5.03;3.42;;;;;;;27.11;82.13;100993.09;4918568;29;20457;-75
2021/05/27 11:27:27;;;;;;;6.97;3.30;;;;;;;27.48;80.11;100993.63;4917209;29;20058;-76
2021/05/27 11:30:18;;;;;;;5.72;3.80;;;;;;;27.56;79.48;100996.53;4918036;29;20038;-77
2021/05/27 11:33:28;;;;;;;8.25;3.58;;;;;;;26.72;85.79;100985.53;4904462;29;20040;-77
2021/05/27 11:36:25;;;;;;;9.63;3.50;;;;;;;27.31;80.10;100988.78;4921249;29;20063;-76
2021/05/27 11:39:11;;;;;;;15.25;3.75;;;;;;;27.15;76.08;100994.53;4921486;29;20032;-77
2021/05/27 11:41:57;;;;;;;5.20;3.33;;;;;;;26.98;75.10;100991.50;4921943;29;20043;-77
2021/05/27 11:45:00;;;;;;;4.57;2.90;;;;;;;27.46;73.75;100987.53;4922036;29;20038;-77
2021/05/27 11:48:17;;;;;;;5.18;2.95;;;;;;;27.80;72.59;100983.69;4921527;29;20047;-76
2021/05/27 11:51:14;;;;;;;8.07;3.08;;;;;;;27.98;70.35;100992.97;4921273;29;20557;-77
2021/05/27 11:54:02;;;;;;;8.35;3.08;;;;;;;28.09;68.18;101000.13;4907608;29;20525;-76
2021/05/27 11:56:50;;;;;;;3.90;2.78;;;;;;;28.26;67.09;100994.13;4921132;29;20038;-77
2021/05/27 11:59:37;;;;;;;9.05;3.05;;;;;;;28.84;66.19;100988.91;4908126;29;20500;-76
2021/05/27 12:02:40;;;;;;;7.55;3.60;;;;;;;27.93;68.84;100981.72;4920684;29;20032;-76
2021/05/27 12:05:27;;;;;;;6.28;3.65;;;;;;;27.45;73.82;100969.66;4921628;29;20073;-77
2021/05/27 12:08:13;;;;;;;7.38;3.67;;;;;;;27.77;73.00;100970.50;4908377;29;20036;-76
2021/05/27 12:11:00;;;;;;;5.78;3.20;;;;;;;27.94;75.85;100969.09;4921139;29;20035;-77
2021/05/27 12:13:46;;;;;;;5.38;3.15;;;;;;;28.25;73.00;100962.78;4920231;29;20402;-76
2021/05/27 12:16:36;;;;;;;5.72;3.40;;;;;;;28.20;72.20;100959.63;4920919;29;20374;-76
2021/05/27 12:19:22;;;;;;;5.82;3.17;;;;;;;27.98;72.37;100957.06;4908057;29;20131;-77
2021/05/27 12:22:08;;;;;;;6.70;3.15;;;;;;;28.33;70.40;100952.19;4921069;29;20024;-77
2021/05/27 12:25:21;;;;;;;4.38;3.20;;;;;;;27.95;74.17;100946.53;4907966;29;20484;-77
2021/05/27 12:28:10;;;;;;;5.50;3.45;;;;;;;28.01;75.49;100944.22;4906818;29;20047;-79
2021/05/27 12:30:57;;;;;;;8.20;3.72;;;;;;;28.30;71.31;100936.28;4920976;29;20099;-78
2021/05/27 12:33:43;;;;;;;5.70;3.58;;;;;;;28.73;69.74;100932.38;4921732;29;20084;-78
2021/05/27 12:36:29;;;;;;;6.25;3.53;;;;;;;28.32;70.33;100940.53;4920979;29;20429;-77
2021/05/27 12:39:45;;;;;;;6.50;3.10;;;;;;;28.45;68.64;100930.41;4921423;29;20059;-78
2021/05/27 12:42:36;;;;;;;6.47;3.22;;;;;;;28.36;68.76;100923.13;4920454;29;20032;-74
2021/05/27 12:45:22;;;;;;;5.82;3.10;;;;;;;29.22;66.51;100923.44;4921638;29;20059;-74
2021/05/27 12:48:25;;;;;;;4.50;3.40;;;;;;;28.09;73.33;100911.22;4920145;29;20392;-75
2021/05/27 12:51:11;;;;;;;5.13;3.13;;;;;;;28.14;70.83;100899.03;4920600;29;20465;-75
2021/05/27 12:53:58;;;;;;;5.43;3.60;;;;;;;27.80;71.95;100892.13;4907972;29;20035;-75
2021/05/27 12:56:45;;;;;;;4.10;3.38;;;;;;;28.96;66.16;100892.53;4907056;29;20067;-75
2021/05/27 12:59:32;;;;;;;6.40;3.40;;;;;;;29.22;66.34;100889.22;4906582;29;20036;-75
2021/05/27 13:02:23;;;;;;;5.03;3.85;;;;;;;28.56;69.98;100887.19;4921406;29;20028;-78
2021/05/27 13:05:20;;;;;;;6.18;3.50;;;;;;;28.91;68.75;100874.09;4920162;29;20088;-78
2021/05/27 13:08:09;;;;;;;5.15;3.60;;;;;;;28.75;71.25;100876.47;4906733;29;20024;-78
2021/05/27 13:10:55;;;;;;;7.25;3.95;;;;;;;28.25;76.62;100887.31;4921224;29;20114;-76
2021/05/27 13:13:41;;;;;;;7.32;3.60;;;;;;;27.97;74.56;100886.19;4920032;29;20533;-76
2021/05/27 13:16:35;;;;;;;5.43;3.67;;;;;;;28.19;74.03;100888.72;4920343;29;20040;-75
2021/05/27 13:19:27;;;;;;;7.90;3.80;;;;;;;28.10;74.49;100877.88;4907195;29;20114;-78
2021/05/27 13:22:28;;;;;;;9.73;3.58;;;;;;;28.08;72.03;100869.94;4920407;29;20032;-78
2021/05/27 13:25:14;;;;;;;16.13;3.97;;;;;;;28.55;69.59;100868.44;4918631;29;20082;-77
2021/05/27 13:28:00;;;;;;;6.97;3.50;;;;;;;28.26;69.25;100871.03;4919199;29;20032;-77
2021/05/27 13:31:03;;;;;;;6.35;3.55;;;;;;;29.00;68.52;100867.88;4920131;29;20039;-76
2021/05/27 13:33:56;;;;;;;7.38;3.60;;;;;;;28.16;68.45;100870.09;4906574;29;20067;-76
2021/05/27 13:36:47;;;;;;;12.70;3.63;;;;;;;27.77;70.78;100864.63;4906262;29;20075;-75
2021/05/27 13:39:33;;;;;;;7.30;3.47;;;;;;;28.01;73.00;100867.91;4906271;29;20039;-75
2021/05/27 13:42:19;;;;;;;9.93;3.80;;;;;;;27.87;74.41;100862.84;4919047;29;20330;-75
2021/05/27 13:45:13;;;;;;;14.88;4.07;;;;;;;27.64;75.53;100864.81;4918503;29;20024;-75
2021/05/27 13:47:59;;;;;;;8.30;3.72;;;;;;;27.32;77.96;100855.94;4919485;29;20141;-75
2021/05/27 13:50:46;;;;;;;4.75;3.67;;;;;;;27.60;76.74;100851.75;4918586;29;20043;-75
2021/05/27 13:53:32;;;;;;;6.88;4.00;;;;;;;27.39;77.49;100860.69;4917995;29;20028;-75
2021/05/27 13:56:21;;;;;;;6.97;3.65;;;;;;;27.46;78.91;100863.69;4918145;29;20024;-75
2021/05/27 13:59:07;;;;;;;6.65;3.75;;;;;;;27.17;81.95;100857.22;4918961;29;20039;-74
2021/05/27 14:04:32;;;;;;;7.95;3.83;;;;;;;27.23;82.82;100862.09;4989113;23;20048;-78
2021/05/27 14:07:18;;;;;;;12.63;5.72;;;;;;;27.82;81.65;100851.63;4920203;29;20050;-76